Millersville, Tennessee
Current Conditions -  °F | °C
As of 8:55 PM on Monday 22 Dec 2014 (Local Time) from KM91 Reporting Station
Overcast Overcast  
Wind Chill: 52°   Ceiling: 1000
Heat Index: 52°   Visibility: 9mi
Dew Point: 52°   Wind: 10mph
Humidity: 100%   Direction: 200°SSW
Pressure: 29.7"   Gusts: NA
Location:  36.3549°N, 86.7496°W
Report Text: KM91 230255Z AUTO 20009KT 9SM BKN010 OVC014 11/11 A2970 RMK
Loading
Personal Weather Stations






























Interactive Weather Map New forecast layout! Learn more

10-Day Weather Forecast

Advertisements
Track Severe Weather on mobile